Tarago — LAPN5 — position and weather

sailwx.info

Track history (hours):
 
Tides and Currents Weather Stations Pressure Air Temp Water Temp Dewpoint Dewpoint Depression Visibility Wind Speed Wind Dir Waves Ship Positions

Tarago

Last reported at 2018-Apr-25 00:39 UTC. Time now 2018-Apr-25 03:05 UTC.
Position N 37°05' W 076°06'.

Length 245 m; draft 8.9 m.

Type: Cargo ship. MMSI: 257672000.

Date/timePositionNaut miles runAvg speedWind from/ knotsBaromVisibWave heightAir tempDewpointWater temp
2018-Apr-25 00:39N 37°05' W 076°06'417.6
2018-Apr-25 00:26N 37°02' W 076°03'613.2
2018-Apr-25 00:00N 36°57' W 075°59'4 8.4
2018-Apr-24 23:30N 36°55' W 075°54'5 9.1
2018-Apr-24 22:59N 36°52' W 075°50'  
2018-Apr-16 14:53N 47°54' W 006°46'1515.9
2018-Apr-16 13:58N 48°07' W 006°36'6817.0
2018-Apr-16 09:58N 49°07' W 005°45'8015.4
2018-Apr-16 04:47N 49°37' W 003°51'914.6
2018-Apr-16 04:10N 49°41' W 003°39'315.1
2018-Apr-16 04:01N 49°42' W 003°36'815.3
2018-Apr-16 03:30N 49°46' W 003°26'816.6
2018-Apr-16 03:00N 49°50' W 003°14'918.0
2018-Apr-16 02:31N 49°55' W 003°03'919.0
2018-Apr-16 02:01N 49°59' W 002°50'1020.3
2018-Apr-16 01:30N 50°03' W 002°35'1120.7
2018-Apr-16 00:58N 50°08' W 002°19'1220.6
2018-Apr-16 00:24N 50°13' W 002°03'819.9
2018-Apr-15 23:59N 50°17' W 001°51'1119.1
2018-Apr-15 23:26N 50°22' W 001°37'818.6
2018-Apr-15 22:59N 50°26' W 001°25'817.6
2018-Apr-15 22:30N 50°29' W 001°13'816.8
2018-Apr-15 22:01N 50°33' W 001°02'713.3
2018-Apr-15 21:30N 50°40' W 000°58'510.3
2018-Apr-15 21:01N 50°44' W 001°03'918.0
2018-Apr-15 20:31N 50°46' W 001°17'4 8.9
2018-Apr-15 20:00N 50°51' W 001°20'3 6.6
2018-Apr-15 19:30N 50°53' W 001°24'0 0.7
2018-Apr-15 19:00N 50°53' W 001°24'0 0.0
2018-Apr-15 18:30N 50°53' W 001°24'0 0.0
2018-Apr-15 18:00N 50°53' W 001°24'0 0.0
2018-Apr-15 17:30N 50°53' W 001°24'0 0.0
2018-Apr-15 17:00N 50°53' W 001°24'0 0.0
2018-Apr-15 16:30N 50°53' W 001°24'0 0.0
2018-Apr-15 16:00N 50°53' W 001°24'0 0.0
2018-Apr-15 15:30N 50°53' W 001°24'0 0.0
2018-Apr-15 15:00N 50°53' W 001°24'0 0.0
2018-Apr-15 14:30N 50°53' W 001°24'0 0.0
2018-Apr-15 14:00N 50°53' W 001°24'0 0.0
2018-Apr-15 13:30N 50°53' W 001°24'0 0.0
2018-Apr-15 13:00N 50°53' W 001°24'0 0.0
2018-Apr-15 12:30N 50°53' W 001°24'0 0.0
2018-Apr-15 12:00N 50°53' W 001°24'0 0.0
2018-Apr-15 11:30N 50°53' W 001°24'0 0.0
2018-Apr-15 11:00N 50°53' W 001°24'0 0.0
2018-Apr-15 10:30N 50°53' W 001°24'0 0.0
2018-Apr-15 10:00N 50°53' W 001°24'0 0.0
2018-Apr-15 09:30N 50°53' W 001°24'0 0.0
2018-Apr-15 09:00N 50°53' W 001°24'0 0.0
2018-Apr-15 08:30N 50°53' W 001°24'0 0.0
2018-Apr-15 08:00N 50°53' W 001°24'0 0.0
2018-Apr-15 07:30N 50°53' W 001°24'0 0.0
2018-Apr-15 07:00N 50°53' W 001°24'0 0.0
2018-Apr-15 06:30N 50°53' W 001°24'0 0.0
2018-Apr-15 06:00N 50°53' W 001°24'0 0.0
2018-Apr-15 05:27N 50°53' W 001°24'0 0.0
2018-Apr-15 05:00N 50°53' W 001°24'0 0.0
2018-Apr-15 04:30N 50°53' W 001°24'0 0.0
2018-Apr-15 04:00N 50°53' W 001°24'0 0.0
2018-Apr-15 03:30N 50°53' W 001°24'0 0.0
2018-Apr-15 03:00N 50°53' W 001°24'0 0.0
2018-Apr-15 02:30N 50°53' W 001°24'0 0.0
2018-Apr-15 02:00N 50°53' W 001°24'0 0.0
2018-Apr-15 01:30N 50°53' W 001°24'0 0.0
2018-Apr-15 01:00N 50°53' W 001°24'  
Track history (hours):
 
Tides and Currents Weather Stations Pressure Air Temp Water Temp Dewpoint Dewpoint Depression Visibility Wind Speed Wind Dir Waves Ship Positions

Tarago

Last reported at 2018-Apr-25 00:39 UTC. Time now 2018-Apr-25 03:05 UTC.
Position N 37°05' W 076°06'.

Length 245 m; draft 8.9 m.

Type: Cargo ship. MMSI: 257672000.

Date/timePositionNaut miles runAvg speedWind from/ knotsBaromVisibWave heightAir tempDewpointWater temp
2018-Apr-25 00:39N 37°05' W 076°06'417.6
2018-Apr-25 00:26N 37°02' W 076°03'613.2
2018-Apr-25 00:00N 36°57' W 075°59'4 8.4
2018-Apr-24 23:30N 36°55' W 075°54'5 9.1
2018-Apr-24 22:59N 36°52' W 075°50'  
2018-Apr-16 14:53N 47°54' W 006°46'1515.9
2018-Apr-16 13:58N 48°07' W 006°36'6817.0
2018-Apr-16 09:58N 49°07' W 005°45'8015.4
2018-Apr-16 04:47N 49°37' W 003°51'914.6
2018-Apr-16 04:10N 49°41' W 003°39'315.1
2018-Apr-16 04:01N 49°42' W 003°36'815.3
2018-Apr-16 03:30N 49°46' W 003°26'816.6
2018-Apr-16 03:00N 49°50' W 003°14'918.0
2018-Apr-16 02:31N 49°55' W 003°03'919.0
2018-Apr-16 02:01N 49°59' W 002°50'1020.3
2018-Apr-16 01:30N 50°03' W 002°35'1120.7
2018-Apr-16 00:58N 50°08' W 002°19'1220.6
2018-Apr-16 00:24N 50°13' W 002°03'819.9
2018-Apr-15 23:59N 50°17' W 001°51'1119.1
2018-Apr-15 23:26N 50°22' W 001°37'818.6
2018-Apr-15 22:59N 50°26' W 001°25'817.6
2018-Apr-15 22:30N 50°29' W 001°13'816.8
2018-Apr-15 22:01N 50°33' W 001°02'713.3
2018-Apr-15 21:30N 50°40' W 000°58'510.3
2018-Apr-15 21:01N 50°44' W 001°03'918.0
2018-Apr-15 20:31N 50°46' W 001°17'4 8.9
2018-Apr-15 20:00N 50°51' W 001°20'3 6.6
2018-Apr-15 19:30N 50°53' W 001°24'0 0.7
2018-Apr-15 19:00N 50°53' W 001°24'0 0.0
2018-Apr-15 18:30N 50°53' W 001°24'0 0.0
2018-Apr-15 18:00N 50°53' W 001°24'0 0.0
2018-Apr-15 17:30N 50°53' W 001°24'0 0.0
2018-Apr-15 17:00N 50°53' W 001°24'0 0.0
2018-Apr-15 16:30N 50°53' W 001°24'0 0.0
2018-Apr-15 16:00N 50°53' W 001°24'0 0.0
2018-Apr-15 15:30N 50°53' W 001°24'0 0.0
2018-Apr-15 15:00N 50°53' W 001°24'0 0.0
2018-Apr-15 14:30N 50°53' W 001°24'0 0.0
2018-Apr-15 14:00N 50°53' W 001°24'0 0.0
2018-Apr-15 13:30N 50°53' W 001°24'0 0.0
2018-Apr-15 13:00N 50°53' W 001°24'0 0.0
2018-Apr-15 12:30N 50°53' W 001°24'0 0.0
2018-Apr-15 12:00N 50°53' W 001°24'0 0.0
2018-Apr-15 11:30N 50°53' W 001°24'0 0.0
2018-Apr-15 11:00N 50°53' W 001°24'0 0.0
2018-Apr-15 10:30N 50°53' W 001°24'0 0.0
2018-Apr-15 10:00N 50°53' W 001°24'0 0.0
2018-Apr-15 09:30N 50°53' W 001°24'0 0.0
2018-Apr-15 09:00N 50°53' W 001°24'0 0.0
2018-Apr-15 08:30N 50°53' W 001°24'0 0.0
2018-Apr-15 08:00N 50°53' W 001°24'0 0.0
2018-Apr-15 07:30N 50°53' W 001°24'0 0.0
2018-Apr-15 07:00N 50°53' W 001°24'0 0.0
2018-Apr-15 06:30N 50°53' W 001°24'0 0.0
2018-Apr-15 06:00N 50°53' W 001°24'0 0.0
2018-Apr-15 05:27N 50°53' W 001°24'0 0.0
2018-Apr-15 05:00N 50°53' W 001°24'0 0.0
2018-Apr-15 04:30N 50°53' W 001°24'0 0.0
2018-Apr-15 04:00N 50°53' W 001°24'0 0.0
2018-Apr-15 03:30N 50°53' W 001°24'0 0.0
2018-Apr-15 03:00N 50°53' W 001°24'0 0.0
2018-Apr-15 02:30N 50°53' W 001°24'0 0.0
2018-Apr-15 02:00N 50°53' W 001°24'0 0.0
2018-Apr-15 01:30N 50°53' W 001°24'0 0.0
2018-Apr-15 01:00N 50°53' W 001°24'  

Dump ship's entire track history